Time,TemperatureF,DewpointF,PressureIn,WindDirection,WindDirectionDegrees,WindSpeedMPH,WindSpeedGustMPH,Humidity,HourlyPrecipIn,Conditions,Clouds,dailyrainin,SolarRadiationWatts/m^2,SoftwareType,DateUTC
2013-01-29 00:01:00,22.0,21.0,-100.00,East,89,2.0,10.0,94,0.00,,,0.00,1.000000,,2013-01-29 07:01:00,
2013-01-29 00:11:00,22.0,21.0,-100.00,East,89,2.0,10.0,94,0.00,,,0.00,1.000000,,2013-01-29 07:11:00,
2013-01-29 00:21:00,22.0,21.0,-100.00,East,89,2.0,10.0,94,0.00,,,0.00,1.000000,,2013-01-29 07:21:00,
2013-01-29 00:52:00,22.0,21.0,-100.00,East,86,4.0,7.0,94,0.00,,,0.00,1.000000,,2013-01-29 07:52:00,
2013-01-29 01:02:00,22.0,21.0,-100.00,East,86,4.0,7.0,94,0.00,,,0.00,1.000000,,2013-01-29 08:02:00,
2013-01-29 01:11:00,22.0,21.0,-100.00,East,86,4.0,7.0,94,0.00,,,0.00,1.000000,,2013-01-29 08:11:00,
2013-01-29 01:21:00,22.0,21.0,-100.00,East,86,4.0,7.0,94,0.00,,,0.00,1.000000,,2013-01-29 08:21:00,
2013-01-29 01:52:00,20.0,18.0,-100.00,East,87,3.0,7.0,93,0.00,,,0.00,1.000000,,2013-01-29 08:52:00,
2013-01-29 02:01:00,20.0,18.0,-100.00,East,87,3.0,7.0,93,0.00,,,0.00,1.000000,,2013-01-29 09:01:00,
2013-01-29 02:11:00,20.0,18.0,-100.00,East,87,3.0,7.0,93,0.00,,,0.00,1.000000,,2013-01-29 09:11:00,
2013-01-29 02:21:00,20.0,18.0,-100.00,East,87,3.0,7.0,93,0.00,,,0.00,1.000000,,2013-01-29 09:21:00,
2013-01-29 02:42:00,19.0,17.0,-100.00,ESE,112,0.0,8.0,92,0.00,,,0.00,1.000000,,2013-01-29 09:42:00,
2013-01-29 02:52:00,19.0,17.0,-100.00,ESE,112,0.0,8.0,92,0.00,,,0.00,1.000000,,2013-01-29 09:52:00,
2013-01-29 03:01:00,19.0,17.0,-100.00,ESE,112,0.0,8.0,92,0.00,,,0.00,1.000000,,2013-01-29 10:01:00,
2013-01-29 03:11:00,19.0,17.0,-100.00,ESE,112,0.0,8.0,92,0.00,,,0.00,1.000000,,2013-01-29 10:11:00,
2013-01-29 03:21:00,19.0,17.0,-100.00,ESE,112,0.0,8.0,92,0.00,,,0.00,1.000000,,2013-01-29 10:21:00,
2013-01-29 03:52:00,18.0,16.0,-100.00,West,279,2.0,5.0,92,0.00,,,0.00,1.000000,,2013-01-29 10:52:00,
2013-01-29 04:02:00,18.0,16.0,-100.00,West,279,2.0,5.0,92,0.00,,,0.00,1.000000,,2013-01-29 11:02:00,
2013-01-29 04:11:00,18.0,16.0,-100.00,West,279,2.0,5.0,92,0.00,,,0.00,1.000000,,2013-01-29 11:11:00,
2013-01-29 04:21:00,18.0,16.0,-100.00,West,279,2.0,5.0,92,0.00,,,0.00,1.000000,,2013-01-29 11:21:00,
2013-01-29 04:53:00,16.0,11.0,-100.00,WNW,285,3.0,6.0,81,0.00,,,0.00,1.000000,,2013-01-29 11:53:00,
2013-01-29 05:02:00,16.0,11.0,-100.00,WNW,285,3.0,6.0,81,0.00,,,0.00,1.000000,,2013-01-29 12:02:00,
2013-01-29 05:12:00,16.0,11.0,-100.00,WNW,285,3.0,6.0,81,0.00,,,0.00,1.000000,,2013-01-29 12:12:00,
2013-01-29 05:22:00,16.0,11.0,-100.00,WNW,285,3.0,6.0,81,0.00,,,0.00,1.000000,,2013-01-29 12:22:00,
2013-01-29 05:53:00,15.0,8.0,-100.00,WNW,285,3.0,10.0,73,0.00,,,0.00,1.000000,,2013-01-29 12:53:00,
2013-01-29 06:02:00,15.0,8.0,-100.00,WNW,285,3.0,10.0,73,0.00,,,0.00,1.000000,,2013-01-29 13:02:00,
2013-01-29 06:12:00,15.0,8.0,-100.00,WNW,285,3.0,10.0,73,0.00,,,0.00,1.000000,,2013-01-29 13:12:00,
2013-01-29 06:22:00,15.0,8.0,-100.00,WNW,285,3.0,10.0,73,0.00,,,0.00,1.000000,,2013-01-29 13:22:00,
2013-01-29 06:52:00,15.0,8.0,-100.00,West,276,2.0,8.0,72,0.00,,,0.00,1.000000,,2013-01-29 13:52:00,
2013-01-29 07:02:00,15.0,8.0,-100.00,West,276,2.0,8.0,72,0.00,,,0.00,1.000000,,2013-01-29 14:02:00,
2013-01-29 07:12:00,15.0,8.0,-100.00,West,276,2.0,8.0,72,0.00,,,0.00,1.000000,,2013-01-29 14:12:00,
2013-01-29 07:22:00,15.0,8.0,-100.00,West,276,2.0,8.0,72,0.00,,,0.00,1.000000,,2013-01-29 14:22:00,
2013-01-29 07:53:00,15.0,7.0,-100.00,WNW,298,4.0,6.0,70,0.00,,,0.00,1.000000,,2013-01-29 14:53:00,
2013-01-29 08:02:00,15.0,7.0,-100.00,WNW,298,4.0,6.0,70,0.00,,,0.00,1.000000,,2013-01-29 15:02:00,
2013-01-29 08:12:00,15.0,7.0,-100.00,WNW,298,4.0,6.0,70,0.00,,,0.00,1.000000,,2013-01-29 15:12:00,
2013-01-29 08:22:00,15.0,7.0,-100.00,WNW,298,4.0,6.0,70,0.00,,,0.00,1.000000,,2013-01-29 15:22:00,
2013-01-29 08:53:00,13.0,8.0,-100.00,WNW,291,2.0,6.0,80,0.00,,,0.00,4.000000,,2013-01-29 15:53:00,
2013-01-29 09:02:00,13.0,8.0,-100.00,WNW,291,2.0,6.0,80,0.00,,,0.00,4.000000,,2013-01-29 16:02:00,
2013-01-29 09:12:00,13.0,8.0,-100.00,WNW,291,2.0,6.0,80,0.00,,,0.00,4.000000,,2013-01-29 16:12:00,
2013-01-29 09:22:00,13.0,8.0,-100.00,WNW,291,2.0,6.0,80,0.00,,,0.00,4.000000,,2013-01-29 16:22:00,
2013-01-29 09:53:00,18.0,5.0,-100.00,NW,313,2.0,7.0,55,0.00,,,-99.99,18.000000,,2013-01-29 16:53:00,
2013-01-29 10:03:00,18.0,5.0,-100.00,NW,313,2.0,7.0,55,0.00,,,-99.99,18.000000,,2013-01-29 17:03:00,
2013-01-29 10:12:00,18.0,5.0,-100.00,NW,313,2.0,7.0,55,0.00,,,-99.99,18.000000,,2013-01-29 17:12:00,
2013-01-29 10:22:00,18.0,5.0,-100.00,NW,313,2.0,7.0,55,0.00,,,-99.99,18.000000,,2013-01-29 17:22:00,
2013-01-29 10:52:00,22.0,4.0,-100.00,West,273,1.0,6.0,46,0.00,,,0.00,35.000000,,2013-01-29 17:52:00,
2013-01-29 11:04:00,22.0,4.0,-100.00,West,273,1.0,6.0,46,0.00,,,0.00,35.000000,,2013-01-29 18:04:00,
2013-01-29 11:12:00,22.0,4.0,-100.00,West,273,1.0,6.0,46,0.00,,,0.00,35.000000,,2013-01-29 18:12:00,
2013-01-29 11:22:00,22.0,4.0,-100.00,West,273,1.0,6.0,46,0.00,,,0.00,35.000000,,2013-01-29 18:22:00,
2013-01-29 11:52:00,29.0,7.0,-100.00,WSW,245,4.0,7.0,39,0.00,,,-99.99,69.000000,,2013-01-29 18:52:00,
2013-01-29 12:02:00,29.0,7.0,-100.00,WSW,245,4.0,7.0,39,0.00,,,-99.99,69.000000,,2013-01-29 19:02:00,
2013-01-29 12:12:00,29.0,7.0,-100.00,WSW,245,4.0,7.0,39,0.00,,,-99.99,69.000000,,2013-01-29 19:12:00,
2013-01-29 12:22:00,29.0,7.0,-100.00,WSW,245,4.0,7.0,39,0.00,,,-99.99,69.000000,,2013-01-29 19:22:00,
2013-01-29 12:52:00,28.0,2.0,-100.00,West,265,6.0,11.0,32,0.01,,,0.01,101.000000,,2013-01-29 19:52:00,
2013-01-29 13:02:00,28.0,2.0,-100.00,West,265,6.0,11.0,32,0.01,,,0.01,101.000000,,2013-01-29 20:02:00,
2013-01-29 13:12:00,28.0,2.0,-100.00,West,265,6.0,11.0,32,0.01,,,0.01,101.000000,,2013-01-29 20:12:00,
2013-01-29 13:22:00,28.0,2.0,-100.00,West,265,6.0,11.0,32,0.01,,,0.01,101.000000,,2013-01-29 20:22:00,
2013-01-29 13:53:00,33.0,-2.0,-100.00,WSW,238,4.0,18.0,22,0.00,,,0.01,199.000000,,2013-01-29 20:53:00,
2013-01-29 14:03:00,33.0,-2.0,-100.00,WSW,238,4.0,18.0,22,0.00,,,0.01,199.000000,,2013-01-29 21:03:00,
2013-01-29 14:12:00,33.0,-2.0,-100.00,WSW,238,4.0,18.0,22,0.00,,,0.01,199.000000,,2013-01-29 21:12:00,
2013-01-29 14:22:00,33.0,-2.0,-100.00,WSW,238,4.0,18.0,22,0.00,,,0.01,199.000000,,2013-01-29 21:22:00,
2013-01-29 14:53:00,33.0,-2.0,-100.00,West,260,6.0,16.0,22,0.00,,,0.01,536.000000,,2013-01-29 21:53:00,
2013-01-29 15:03:00,33.0,-2.0,-100.00,West,260,6.0,16.0,22,0.00,,,0.01,536.000000,,2013-01-29 22:03:00,
2013-01-29 15:12:00,33.0,-2.0,-100.00,West,260,6.0,16.0,22,0.00,,,0.01,536.000000,,2013-01-29 22:12:00,
2013-01-29 15:22:00,33.0,-2.0,-100.00,West,260,6.0,16.0,22,0.00,,,0.01,536.000000,,2013-01-29 22:22:00,
2013-01-29 15:53:00,31.0,-2.0,-100.00,WNW,283,7.0,17.0,24,0.00,,,0.01,544.000000,,2013-01-29 22:53:00,
2013-01-29 16:02:00,31.0,-2.0,-100.00,WNW,283,7.0,17.0,24,0.00,,,0.01,544.000000,,2013-01-29 23:02:00,
2013-01-29 16:12:00,31.0,-2.0,-100.00,WNW,283,7.0,17.0,24,0.00,,,0.01,544.000000,,2013-01-29 23:12:00,
2013-01-29 16:22:00,31.0,-2.0,-100.00,WNW,283,7.0,17.0,24,0.00,,,0.01,544.000000,,2013-01-29 23:22:00,
2013-01-29 16:53:00,25.0,-1.0,-100.00,West,276,5.0,16.0,31,0.00,,,0.01,217.000000,,2013-01-29 23:53:00,
2013-01-29 17:03:00,25.0,-1.0,-100.00,West,276,5.0,16.0,31,0.00,,,0.01,217.000000,,2013-01-30 00:03:00,
2013-01-29 17:12:00,25.0,-1.0,-100.00,West,276,5.0,16.0,31,0.00,,,0.01,217.000000,,2013-01-30 00:12:00,
2013-01-29 17:22:00,25.0,-1.0,-100.00,West,276,5.0,16.0,31,0.00,,,0.01,217.000000,,2013-01-30 00:22:00,
2013-01-29 17:53:00,22.0,0.0,-100.00,West,271,4.0,9.0,37,0.00,,,0.01,100.000000,,2013-01-30 00:53:00,
2013-01-29 18:02:00,22.0,0.0,-100.00,West,271,4.0,9.0,37,0.00,,,0.01,100.000000,,2013-01-30 01:02:00,
2013-01-29 18:12:00,22.0,0.0,-100.00,West,271,4.0,9.0,37,0.00,,,0.01,100.000000,,2013-01-30 01:12:00,
2013-01-29 18:22:00,22.0,0.0,-100.00,West,271,4.0,9.0,37,0.00,,,0.01,100.000000,,2013-01-30 01:22:00,
2013-01-29 18:52:00,19.0,1.0,-100.00,NW,305,2.0,7.0,45,0.00,,,0.01,5.000000,,2013-01-30 01:52:00,
2013-01-29 19:02:00,19.0,1.0,-100.00,NW,305,2.0,7.0,45,0.00,,,0.01,5.000000,,2013-01-30 02:02:00,
2013-01-29 19:12:00,19.0,1.0,-100.00,NW,305,2.0,7.0,45,0.00,,,0.01,5.000000,,2013-01-30 02:12:00,
2013-01-29 19:22:00,19.0,1.0,-100.00,NW,305,2.0,7.0,45,0.00,,,0.01,5.000000,,2013-01-30 02:22:00,
2013-01-29 19:53:00,17.0,2.0,-100.00,NE,52,2.0,4.0,50,0.00,,,0.01,1.000000,,2013-01-30 02:53:00,
2013-01-29 20:03:00,17.0,2.0,-100.00,NE,52,2.0,4.0,50,0.00,,,0.01,1.000000,,2013-01-30 03:03:00,
2013-01-29 20:12:00,17.0,2.0,-100.00,NE,52,2.0,4.0,50,0.00,,,0.01,1.000000,,2013-01-30 03:12:00,
2013-01-29 20:22:00,17.0,2.0,-100.00,NE,52,2.0,4.0,50,0.00,,,0.01,1.000000,,2013-01-30 03:22:00,
2013-01-29 20:52:00,16.0,6.0,-100.00,NW,307,2.0,3.0,64,0.00,,,0.01,1.000000,,2013-01-30 03:52:00,
2013-01-29 21:02:00,16.0,6.0,-100.00,NW,307,2.0,3.0,64,0.00,,,0.01,1.000000,,2013-01-30 04:02:00,
2013-01-29 21:12:00,16.0,6.0,-100.00,NW,307,2.0,3.0,64,0.00,,,0.01,1.000000,,2013-01-30 04:12:00,
2013-01-29 21:22:00,16.0,6.0,-100.00,NW,307,2.0,3.0,64,0.00,,,0.01,1.000000,,2013-01-30 04:22:00,
2013-01-29 21:42:00,12.0,4.0,-100.00,WNW,290,3.0,7.0,69,0.00,,,0.01,1.000000,,2013-01-30 04:42:00,
2013-01-29 21:52:00,12.0,4.0,-100.00,WNW,290,3.0,7.0,69,0.00,,,0.01,1.000000,,2013-01-30 04:52:00,
2013-01-29 22:03:00,12.0,4.0,-100.00,WNW,290,3.0,7.0,69,0.00,,,0.01,1.000000,,2013-01-30 05:03:00,
2013-01-29 22:12:00,12.0,4.0,-100.00,WNW,290,3.0,7.0,69,0.00,,,0.01,1.000000,,2013-01-30 05:12:00,
2013-01-29 22:22:00,12.0,4.0,-100.00,WNW,290,3.0,7.0,69,0.00,,,0.01,1.000000,,2013-01-30 05:22:00,
2013-01-29 22:52:00,11.0,0.0,-100.00,West,278,4.0,9.0,61,0.00,,,0.01,1.000000,,2013-01-30 05:52:00,
2013-01-29 23:02:00,11.0,0.0,-100.00,West,278,4.0,9.0,61,0.00,,,0.01,1.000000,,2013-01-30 06:02:00,
2013-01-29 23:11:00,11.0,0.0,-100.00,West,278,4.0,9.0,61,0.00,,,0.01,1.000000,,2013-01-30 06:11:00,
2013-01-29 23:21:00,11.0,0.0,-100.00,West,278,4.0,9.0,61,0.00,,,0.01,1.000000,,2013-01-30 06:21:00,
2013-01-29 23:52:00,8.0,-4.0,-100.00,West,270,4.0,9.0,58,0.00,,,0.01,1.000000,,2013-01-30 06:52:00,